createdAt,value
2022-09-21T00:00:51.295Z,5.38
2022-09-21T00:01:51.308Z,5.37
2022-09-21T00:02:51.249Z,5.36
2022-09-21T00:03:51.260Z,5.34
2022-09-21T00:04:51.246Z,5.34
2022-09-21T00:05:51.270Z,5.32
2022-09-21T00:06:51.234Z,5.32
2022-09-21T00:07:51.215Z,5.32
2022-09-21T00:08:51.243Z,5.27
2022-09-21T00:09:51.259Z,5.27
2022-09-21T00:10:51.269Z,5.25
2022-09-21T00:11:54.156Z,5.22
2022-09-21T00:12:51.249Z,5.22
2022-09-21T00:13:51.278Z,5.21
2022-09-21T00:14:51.271Z,5.20
2022-09-21T00:15:51.255Z,5.19
2022-09-21T00:16:51.278Z,5.19
2022-09-21T00:17:51.269Z,5.17
2022-09-21T00:18:51.264Z,5.16
2022-09-21T00:19:51.263Z,5.16
2022-09-21T00:20:51.266Z,5.16
2022-09-21T00:21:51.262Z,5.16
2022-09-21T00:22:51.251Z,5.16
2022-09-21T00:23:51.267Z,5.16
2022-09-21T00:24:51.262Z,5.14
2022-09-21T00:25:51.268Z,5.13
2022-09-21T00:26:51.269Z,5.12
2022-09-21T00:27:51.343Z,5.10
2022-09-21T00:28:51.270Z,5.08
2022-09-21T00:29:51.273Z,5.06
2022-09-21T00:30:51.261Z,5.06
2022-09-21T00:31:51.319Z,5.03
2022-09-21T00:32:51.314Z,5.02
2022-09-21T00:33:51.289Z,5.03
2022-09-21T00:34:51.280Z,5.04
2022-09-21T00:35:51.272Z,5.04
2022-09-21T00:36:51.274Z,5.03
2022-09-21T00:37:51.266Z,5.06
2022-09-21T00:38:51.269Z,5.07
2022-09-21T00:39:51.308Z,5.09
2022-09-21T00:40:51.273Z,5.11
2022-09-21T00:41:51.284Z,5.09
2022-09-21T00:42:51.284Z,5.07
2022-09-21T00:43:51.294Z,5.04
2022-09-21T00:44:51.271Z,5.04
2022-09-21T00:45:51.327Z,5.02
2022-09-21T00:46:51.280Z,5.01
2022-09-21T00:47:51.281Z,5.02
2022-09-21T00:48:51.274Z,5.01
2022-09-21T00:49:51.298Z,5.00
2022-09-21T00:50:51.311Z,5.00
2022-09-21T00:51:51.288Z,4.99
2022-09-21T00:52:51.295Z,4.97
2022-09-21T00:53:51.284Z,4.94
2022-09-21T00:54:51.291Z,4.92
2022-09-21T00:55:51.297Z,4.91
2022-09-21T00:56:51.302Z,4.88
2022-09-21T00:57:51.303Z,4.89
2022-09-21T00:58:51.301Z,4.87
2022-09-21T00:59:51.316Z,4.88
2022-09-21T01:00:51.369Z,4.86
2022-09-21T01:01:51.347Z,4.85
2022-09-21T01:02:51.313Z,4.85
2022-09-21T01:03:51.305Z,4.84
2022-09-21T01:04:51.316Z,4.84
2022-09-21T01:05:51.302Z,4.84
2022-09-21T01:06:51.317Z,4.82
2022-09-21T01:07:51.307Z,4.82
2022-09-21T01:08:51.322Z,4.80
2022-09-21T01:09:51.316Z,4.80
2022-09-21T01:10:51.330Z,4.80
2022-09-21T01:11:51.319Z,4.78
2022-09-21T01:12:51.313Z,4.78
2022-09-21T01:13:51.348Z,4.77
2022-09-21T01:14:51.332Z,4.76
2022-09-21T01:15:51.300Z,4.75
2022-09-21T01:16:51.297Z,4.72
2022-09-21T01:17:51.323Z,4.72
2022-09-21T01:18:51.313Z,4.71
2022-09-21T01:19:51.330Z,4.68
2022-09-21T01:20:51.343Z,4.68
2022-09-21T01:21:51.316Z,4.67
2022-09-21T01:22:51.311Z,4.67
2022-09-21T01:23:51.335Z,4.66
2022-09-21T01:24:51.320Z,4.68
2022-09-21T01:25:51.324Z,4.67
2022-09-21T01:26:51.303Z,4.68
2022-09-21T01:27:51.300Z,4.67
2022-09-21T01:28:51.315Z,4.68
2022-09-21T01:29:51.338Z,4.68
2022-09-21T01:30:51.294Z,4.66
2022-09-21T01:31:51.410Z,4.67
2022-09-21T01:32:51.331Z,4.66
2022-09-21T01:33:51.324Z,4.66
2022-09-21T01:34:51.346Z,4.66
2022-09-21T01:35:51.319Z,4.65
2022-09-21T01:36:51.333Z,4.63
2022-09-21T01:37:51.315Z,4.63
2022-09-21T01:38:51.336Z,4.62
2022-09-21T01:39:51.331Z,4.63
2022-09-21T01:40:51.364Z,4.65
2022-09-21T01:41:51.324Z,4.64
2022-09-21T01:42:51.327Z,4.67
2022-09-21T01:43:51.337Z,4.67
2022-09-21T01:44:51.355Z,4.67
2022-09-21T01:45:51.348Z,4.68
2022-09-21T01:46:51.319Z,4.68
2022-09-21T01:47:51.328Z,4.67
2022-09-21T01:48:51.349Z,4.68
2022-09-21T01:49:51.340Z,4.68
2022-09-21T01:50:51.317Z,4.67
2022-09-21T01:51:51.337Z,4.65
2022-09-21T01:52:51.321Z,4.64
2022-09-21T01:53:51.351Z,4.62
2022-09-21T01:54:51.364Z,4.61
2022-09-21T01:55:51.354Z,4.60
2022-09-21T01:56:51.348Z,4.58
2022-09-21T01:57:51.334Z,4.57
2022-09-21T01:58:51.339Z,4.56
2022-09-21T01:59:51.346Z,4.55
2022-09-21T02:00:51.366Z,4.55
2022-09-21T02:01:51.402Z,4.56
2022-09-21T02:02:51.345Z,4.56
2022-09-21T02:03:51.361Z,4.56
2022-09-21T02:04:51.341Z,4.54
2022-09-21T02:05:51.421Z,4.54
2022-09-21T02:06:51.345Z,4.52
2022-09-21T02:07:51.370Z,4.53
2022-09-21T02:08:51.380Z,4.52
2022-09-21T02:09:51.381Z,4.50
2022-09-21T02:10:51.345Z,4.50
2022-09-21T02:11:51.359Z,4.48
2022-09-21T02:12:51.359Z,4.48
2022-09-21T02:13:51.369Z,4.48
2022-09-21T02:14:51.366Z,4.49
2022-09-21T02:15:51.458Z,4.49
2022-09-21T02:16:51.333Z,4.49
2022-09-21T02:17:51.405Z,4.49
2022-09-21T02:18:51.429Z,4.50
2022-09-21T02:19:51.423Z,4.50
2022-09-21T02:20:51.428Z,4.54
2022-09-21T02:21:51.464Z,4.56
2022-09-21T02:22:51.448Z,4.56
2022-09-21T02:23:51.497Z,4.60
2022-09-21T02:24:51.501Z,4.62
2022-09-21T02:25:51.494Z,4.64
2022-09-21T02:26:51.522Z,4.64
2022-09-21T02:27:51.539Z,4.68
2022-09-21T02:28:51.529Z,4.66
2022-09-21T02:29:51.540Z,4.67
2022-09-21T02:30:51.552Z,4.67
2022-09-21T02:31:51.575Z,4.68
2022-09-21T02:32:51.579Z,4.68
2022-09-21T02:33:51.563Z,4.67
2022-09-21T02:34:51.562Z,4.70
2022-09-21T02:35:51.606Z,4.71
2022-09-21T02:36:51.633Z,4.72
2022-09-21T02:37:51.647Z,4.74
2022-09-21T02:38:51.630Z,4.76
2022-09-21T02:39:51.655Z,4.78
2022-09-21T02:40:51.626Z,4.80
2022-09-21T02:41:51.654Z,4.82
2022-09-21T02:42:51.652Z,4.83
2022-09-21T02:43:51.645Z,4.83
2022-09-21T02:44:51.676Z,4.83
2022-09-21T02:45:51.733Z,4.83
2022-09-21T02:46:51.815Z,4.83
2022-09-21T02:47:51.861Z,4.83
2022-09-21T02:48:51.858Z,4.83
2022-09-21T02:49:51.848Z,4.83
2022-09-21T02:50:51.879Z,4.85
2022-09-21T02:51:51.850Z,4.88
2022-09-21T02:52:51.866Z,4.89
2022-09-21T02:53:51.856Z,4.91
2022-09-21T02:54:51.877Z,4.93
2022-09-21T02:55:55.706Z,4.94
2022-09-21T02:56:51.871Z,4.96
2022-09-21T02:57:51.884Z,4.98
2022-09-21T02:58:51.891Z,4.99
2022-09-21T02:59:51.883Z,4.99
2022-09-21T03:00:51.970Z,5.01
2022-09-21T03:01:51.914Z,5.03
2022-09-21T03:02:51.859Z,5.02
2022-09-21T03:03:51.902Z,5.03
2022-09-21T03:04:51.913Z,5.02
2022-09-21T03:05:51.887Z,5.02
2022-09-21T03:06:51.921Z,5.03
2022-09-21T03:07:51.872Z,5.03
2022-09-21T03:08:51.881Z,5.03
2022-09-21T03:09:51.911Z,5.03
2022-09-21T03:10:51.882Z,5.04
2022-09-21T03:11:51.881Z,5.06
2022-09-21T03:12:51.886Z,5.08
2022-09-21T03:13:51.884Z,5.10
2022-09-21T03:14:51.887Z,5.12
2022-09-21T03:15:51.947Z,5.15
2022-09-21T03:16:51.904Z,5.17
2022-09-21T03:17:51.892Z,5.17
2022-09-21T03:18:51.882Z,5.17
2022-09-21T03:19:51.901Z,5.16
2022-09-21T03:20:51.885Z,5.17
2022-09-21T03:21:51.888Z,5.16
2022-09-21T03:22:51.904Z,5.15
2022-09-21T03:23:51.901Z,5.17
2022-09-21T03:24:51.907Z,5.21
2022-09-21T03:25:51.885Z,5.21
2022-09-21T03:26:51.884Z,5.25
2022-09-21T03:27:51.903Z,5.27
2022-09-21T03:28:51.891Z,5.28
2022-09-21T03:29:51.924Z,5.29
2022-09-21T03:30:51.948Z,5.28
2022-09-21T03:31:51.912Z,5.27
2022-09-21T03:32:51.916Z,5.27
2022-09-21T03:33:51.924Z,5.28
2022-09-21T03:34:51.921Z,5.28
2022-09-21T03:35:51.910Z,5.29
2022-09-21T03:36:51.908Z,5.32
2022-09-21T03:37:51.935Z,5.37
2022-09-21T03:38:51.914Z,5.41
2022-09-21T03:39:51.911Z,5.44
2022-09-21T03:40:51.917Z,5.46
2022-09-21T03:41:51.923Z,5.49
2022-09-21T03:42:51.902Z,5.51
2022-09-21T03:43:51.919Z,5.54
2022-09-21T03:44:51.940Z,5.57
2022-09-21T03:45:51.914Z,5.61
2022-09-21T03:46:51.948Z,5.61
2022-09-21T03:47:51.922Z,5.61
2022-09-21T03:48:51.925Z,5.61
2022-09-21T03:49:51.941Z,5.62
2022-09-21T03:50:51.917Z,5.61
2022-09-21T03:51:51.916Z,5.61
2022-09-21T03:52:51.908Z,5.61
2022-09-21T03:53:51.939Z,5.61
2022-09-21T03:54:51.936Z,5.61
2022-09-21T03:55:51.910Z,5.60
2022-09-21T03:56:51.915Z,5.58
2022-09-21T03:57:51.921Z,5.59
2022-09-21T03:58:51.915Z,5.56
2022-09-21T03:59:51.967Z,5.55
2022-09-21T04:00:51.876Z,5.53
2022-09-21T04:01:52.074Z,5.54
2022-09-21T04:02:51.956Z,5.54
2022-09-21T04:03:51.912Z,5.55
2022-09-21T04:04:51.952Z,5.57
2022-09-21T04:05:51.912Z,5.59
2022-09-21T04:06:51.931Z,5.60
2022-09-21T04:07:51.964Z,5.63
2022-09-21T04:08:51.935Z,5.65
2022-09-21T04:09:51.931Z,5.69
2022-09-21T04:10:51.919Z,5.69
2022-09-21T04:11:51.943Z,5.72
2022-09-21T04:12:51.960Z,5.73
2022-09-21T04:13:51.945Z,5.73
2022-09-21T04:14:54.510Z,5.74
2022-09-21T04:15:52.019Z,5.73
2022-09-21T04:16:51.940Z,5.75
2022-09-21T04:17:52.023Z,5.75
2022-09-21T04:18:51.990Z,5.77
2022-09-21T04:19:52.045Z,5.77
2022-09-21T04:20:52.060Z,5.79
2022-09-21T04:21:52.031Z,5.78
2022-09-21T04:22:52.004Z,5.77
2022-09-21T04:23:52.029Z,5.78
2022-09-21T04:24:52.075Z,5.77
2022-09-21T04:25:52.031Z,5.77
2022-09-21T04:26:51.996Z,5.79
2022-09-21T04:27:52.152Z,5.78
2022-09-21T04:28:52.136Z,5.79
2022-09-21T04:29:52.158Z,5.79
2022-09-21T04:30:52.188Z,5.79
2022-09-21T04:31:52.166Z,5.77
2022-09-21T04:32:52.148Z,5.73
2022-09-21T04:33:52.160Z,5.72
2022-09-21T04:34:52.157Z,5.72
2022-09-21T04:35:52.164Z,5.69
2022-09-21T04:36:52.156Z,5.69
2022-09-21T04:37:52.156Z,5.69
2022-09-21T04:38:52.170Z,5.70
2022-09-21T04:39:52.183Z,5.72
2022-09-21T04:40:52.232Z,5.73
2022-09-21T04:41:52.219Z,5.74
2022-09-21T04:42:52.257Z,5.76
2022-09-21T04:43:52.237Z,5.77
2022-09-21T04:44:52.250Z,5.76
2022-09-21T04:45:52.335Z,5.76
2022-09-21T04:46:52.290Z,5.77
2022-09-21T04:47:52.268Z,5.77
2022-09-21T04:48:52.320Z,5.77
2022-09-21T04:49:52.329Z,5.76
2022-09-21T04:50:52.338Z,5.77
2022-09-21T04:51:52.298Z,5.76
2022-09-21T04:52:52.305Z,5.74
2022-09-21T04:53:52.378Z,5.73
2022-09-21T04:54:52.412Z,5.73
2022-09-21T04:55:52.383Z,5.73
2022-09-21T04:56:52.429Z,5.70
2022-09-21T04:57:52.392Z,5.70
2022-09-21T04:58:52.394Z,5.68
2022-09-21T04:59:52.455Z,5.69
2022-09-21T05:00:52.450Z,5.67
2022-09-21T05:01:52.618Z,5.66
2022-09-21T05:02:52.468Z,5.66
2022-09-21T05:03:52.543Z,5.64
2022-09-21T05:04:52.483Z,5.64
2022-09-21T05:05:52.490Z,5.65
2022-09-21T05:06:52.515Z,5.65
2022-09-21T05:07:52.543Z,5.65
2022-09-21T05:08:52.528Z,5.68
2022-09-21T05:09:52.609Z,5.68
2022-09-21T05:10:52.563Z,5.72
2022-09-21T05:11:52.577Z,5.71
2022-09-21T05:12:52.607Z,5.74
2022-09-21T05:13:52.605Z,5.73
2022-09-21T05:14:52.625Z,5.73
2022-09-21T05:15:52.726Z,5.73
2022-09-21T05:16:52.646Z,5.73
2022-09-21T05:17:52.656Z,5.70
2022-09-21T05:18:52.682Z,5.70
2022-09-21T05:19:52.684Z,5.68
2022-09-21T05:20:52.718Z,5.66
2022-09-21T05:21:52.723Z,5.67
2022-09-21T05:22:52.749Z,5.65
2022-09-21T05:23:52.708Z,5.67
2022-09-21T05:24:52.729Z,5.69
2022-09-21T05:25:52.770Z,5.70
2022-09-21T05:26:52.772Z,5.70
2022-09-21T05:27:52.761Z,5.70
2022-09-21T05:28:52.776Z,5.71
2022-09-21T05:29:52.829Z,5.70
2022-09-21T05:31:16.339Z,5.70
2022-09-21T05:31:52.817Z,5.69
2022-09-21T05:32:52.801Z,5.68
2022-09-21T05:33:52.827Z,5.68
2022-09-21T05:34:52.833Z,5.68
2022-09-21T05:35:52.805Z,5.69
2022-09-21T05:36:52.840Z,5.69
2022-09-21T05:37:52.797Z,5.72
2022-09-21T05:38:52.843Z,5.73
2022-09-21T05:39:52.829Z,5.74
2022-09-21T05:40:52.831Z,5.75
2022-09-21T05:41:52.811Z,5.73
2022-09-21T05:42:52.840Z,5.72
2022-09-21T05:43:52.806Z,5.72
2022-09-21T05:44:52.849Z,5.72
2022-09-21T05:45:52.853Z,5.61
2022-09-21T05:46:56.087Z,5.60
2022-09-21T05:47:52.842Z,5.58
2022-09-21T05:48:52.843Z,5.58
2022-09-21T05:49:52.842Z,5.58
2022-09-21T05:50:52.845Z,5.60
2022-09-21T05:51:52.830Z,5.60
2022-09-21T05:52:52.807Z,5.60
2022-09-21T05:53:52.838Z,5.60
2022-09-21T05:54:52.850Z,5.61
2022-09-21T05:55:52.853Z,5.63
2022-09-21T05:56:52.820Z,5.63
2022-09-21T05:57:52.835Z,5.63
2022-09-21T05:58:52.817Z,5.62
2022-09-21T05:59:52.856Z,5.63
2022-09-21T06:00:52.838Z,5.63
2022-09-21T06:01:52.919Z,5.67
2022-09-21T06:02:52.842Z,5.67
2022-09-21T06:03:52.839Z,5.67
2022-09-21T06:04:52.836Z,5.63
2022-09-21T06:05:52.837Z,5.61
2022-09-21T06:06:52.829Z,5.60
2022-09-21T06:07:52.846Z,5.57
2022-09-21T06:08:52.857Z,5.58
2022-09-21T06:09:52.850Z,5.55
2022-09-21T06:10:52.844Z,5.53
2022-09-21T06:11:52.851Z,5.52
2022-09-21T06:12:52.825Z,5.50
2022-09-21T06:13:52.848Z,5.46
2022-09-21T06:14:52.847Z,5.46
2022-09-21T06:15:52.838Z,5.45
2022-09-21T06:16:52.900Z,5.46
2022-09-21T06:17:52.891Z,5.50
2022-09-21T06:18:52.836Z,5.54
2022-09-21T06:19:52.861Z,5.57
2022-09-21T06:20:52.856Z,5.57
2022-09-21T06:21:52.888Z,5.57
2022-09-21T06:22:52.860Z,5.58
2022-09-21T06:23:52.847Z,5.58
2022-09-21T06:24:52.886Z,5.65
2022-09-21T06:25:56.075Z,5.65
2022-09-21T06:26:52.877Z,5.67
2022-09-21T06:27:52.846Z,5.68
2022-09-21T06:28:52.868Z,5.65
2022-09-21T06:29:52.857Z,5.65
2022-09-21T06:30:52.904Z,5.65
2022-09-21T06:31:52.884Z,5.64
2022-09-21T06:32:52.850Z,5.65
2022-09-21T06:33:52.869Z,5.66
2022-09-21T06:34:52.871Z,5.68
2022-09-21T06:35:52.934Z,5.66
2022-09-21T06:36:52.865Z,5.64
2022-09-21T06:37:52.882Z,5.64
2022-09-21T06:38:52.853Z,5.63
2022-09-21T06:39:52.898Z,5.63
2022-09-21T06:40:52.883Z,5.66
2022-09-21T06:41:52.869Z,5.65
2022-09-21T06:42:52.873Z,5.59
2022-09-21T06:43:52.888Z,5.58
2022-09-21T06:44:52.901Z,5.58
2022-09-21T06:45:52.969Z,5.57
2022-09-21T06:46:52.881Z,5.55
2022-09-21T06:47:52.854Z,5.55
2022-09-21T06:48:52.901Z,5.56
2022-09-21T06:49:52.894Z,5.56
2022-09-21T06:50:52.883Z,5.60
2022-09-21T06:51:52.880Z,5.59
2022-09-21T06:52:52.892Z,5.60
2022-09-21T06:53:52.886Z,5.63
2022-09-21T06:54:52.912Z,5.65
2022-09-21T06:55:52.880Z,5.70
2022-09-21T06:56:54.896Z,5.73
2022-09-21T06:57:52.896Z,5.72
2022-09-21T06:58:52.918Z,5.76
2022-09-21T06:59:52.910Z,5.80
2022-09-21T07:00:52.939Z,5.83
2022-09-21T07:01:52.957Z,5.91
2022-09-21T07:02:52.886Z,5.98
2022-09-21T07:03:52.891Z,5.99
2022-09-21T07:04:52.929Z,6.02
2022-09-21T07:05:52.889Z,6.02
2022-09-21T07:06:52.871Z,6.05
2022-09-21T07:07:53.827Z,6.06
2022-09-21T07:10:07.164Z,6.09
2022-09-21T07:10:52.891Z,6.12
2022-09-21T07:11:52.886Z,6.16
2022-09-21T07:12:52.881Z,6.19
2022-09-21T07:13:52.901Z,6.19
2022-09-21T07:14:52.901Z,6.23
2022-09-21T07:15:53.493Z,6.26
2022-09-21T07:16:52.929Z,6.30
2022-09-21T07:18:04.860Z,6.31
2022-09-21T07:18:52.920Z,6.34
2022-09-21T07:19:52.933Z,6.34
2022-09-21T07:20:52.924Z,6.33
2022-09-21T07:21:52.908Z,6.30
2022-09-21T07:22:53.034Z,6.29
2022-09-21T07:23:52.909Z,6.29
2022-09-21T07:24:52.924Z,6.29
2022-09-21T07:25:52.929Z,6.30
2022-09-21T07:26:52.901Z,6.32
2022-09-21T07:27:52.926Z,6.31
2022-09-21T07:28:52.923Z,6.33
2022-09-21T07:29:52.894Z,6.33
2022-09-21T07:30:52.932Z,6.39
2022-09-21T07:31:52.989Z,6.44
2022-09-21T07:32:52.931Z,6.44
2022-09-21T07:33:52.923Z,6.44
2022-09-21T07:34:52.938Z,6.55
2022-09-21T07:35:52.918Z,6.56
2022-09-21T07:36:52.991Z,6.54
2022-09-21T07:37:52.943Z,6.48
2022-09-21T07:38:52.913Z,6.47
2022-09-21T07:39:52.966Z,6.48
2022-09-21T07:40:52.907Z,6.46
2022-09-21T07:41:52.955Z,6.48
2022-09-21T07:42:52.922Z,6.49
2022-09-21T07:43:52.939Z,6.50
2022-09-21T07:45:03.327Z,6.54
2022-09-21T07:45:52.981Z,6.58
2022-09-21T07:46:52.933Z,6.62
2022-09-21T07:47:52.941Z,6.63
2022-09-21T07:48:52.921Z,6.67
2022-09-21T07:49:52.946Z,6.68
2022-09-21T07:50:52.933Z,6.70
2022-09-21T07:51:52.939Z,6.71
2022-09-21T07:52:52.937Z,6.72
2022-09-21T07:53:52.944Z,6.65
2022-09-21T07:54:52.937Z,6.62
2022-09-21T07:55:52.882Z,6.65
2022-09-21T07:56:52.964Z,6.68
2022-09-21T07:57:52.922Z,6.70
2022-09-21T07:58:52.947Z,6.75
2022-09-21T07:59:52.964Z,6.81
2022-09-21T08:00:52.990Z,6.86
2022-09-21T08:01:52.992Z,6.94
2022-09-21T08:02:52.935Z,6.99
2022-09-21T08:03:52.931Z,7.02
2022-09-21T08:04:52.966Z,7.10
2022-09-21T08:05:52.962Z,7.17
2022-09-21T08:06:52.955Z,7.31
2022-09-21T08:07:52.951Z,7.31
2022-09-21T08:08:57.499Z,7.37
2022-09-21T08:09:52.953Z,7.36
2022-09-21T08:10:52.975Z,7.43
2022-09-21T08:11:52.961Z,7.52
2022-09-21T08:12:52.981Z,7.64
2022-09-21T08:13:52.962Z,7.67
2022-09-21T08:14:52.986Z,7.64
2022-09-21T08:15:52.974Z,7.61
2022-09-21T08:16:53.031Z,7.64
2022-09-21T08:17:52.984Z,7.63
2022-09-21T08:18:52.954Z,7.70
2022-09-21T08:19:52.981Z,7.71
2022-09-21T08:20:52.966Z,7.71
2022-09-21T08:21:57.184Z,7.87
2022-09-21T08:22:52.973Z,7.88
2022-09-21T08:23:52.971Z,7.88
2022-09-21T08:24:52.976Z,7.94
2022-09-21T08:25:52.992Z,7.91
2022-09-21T08:26:52.969Z,7.94
2022-09-21T08:27:52.973Z,7.95
2022-09-21T08:28:52.972Z,8.10
2022-09-21T08:29:52.991Z,8.12
2022-09-21T08:30:52.961Z,8.25
2022-09-21T08:31:53.027Z,8.31
2022-09-21T08:32:52.988Z,8.32
2022-09-21T08:33:52.991Z,8.34
2022-09-21T08:34:52.970Z,8.38
2022-09-21T08:35:52.975Z,8.44
2022-09-21T08:36:55.534Z,8.53
2022-09-21T08:37:53.015Z,8.60
2022-09-21T08:38:53.009Z,8.64
2022-09-21T08:39:53.004Z,8.66
2022-09-21T08:40:52.991Z,8.67
2022-09-21T08:41:52.975Z,8.71
2022-09-21T08:42:52.994Z,8.70
2022-09-21T08:43:52.984Z,8.73
2022-09-21T08:44:53.024Z,8.70
2022-09-21T08:45:52.988Z,8.63
2022-09-21T08:46:53.018Z,8.58
2022-09-21T08:47:52.964Z,8.61
2022-09-21T08:48:52.998Z,8.66
2022-09-21T08:49:53.008Z,8.70
2022-09-21T08:50:53.005Z,8.74
2022-09-21T08:51:53.006Z,8.76
2022-09-21T08:52:52.992Z,8.86
2022-09-21T08:53:53.023Z,8.86
2022-09-21T08:54:53.000Z,8.90
2022-09-21T08:55:53.022Z,8.90
2022-09-21T08:57:04.937Z,8.95
2022-09-21T08:57:53.007Z,8.98
2022-09-21T08:58:52.984Z,9.03
2022-09-21T08:59:53.027Z,9.12
2022-09-21T09:00:53.057Z,9.19
2022-09-21T09:01:53.049Z,9.24
2022-09-21T09:02:53.033Z,9.32
2022-09-21T09:03:53.019Z,9.43
2022-09-21T09:04:52.991Z,9.47
2022-09-21T09:05:53.036Z,9.52
2022-09-21T09:06:53.033Z,9.55
2022-09-21T09:07:53.012Z,9.59
2022-09-21T09:08:53.006Z,9.63
2022-09-21T09:09:53.024Z,9.65
2022-09-21T09:10:53.013Z,9.70
2022-09-21T09:11:53.013Z,9.68
2022-09-21T09:12:53.027Z,9.61
2022-09-21T09:13:53.003Z,9.60
2022-09-21T09:14:53.020Z,9.59
2022-09-21T09:15:53.064Z,9.59
2022-09-21T09:16:53.038Z,9.59
2022-09-21T09:17:53.028Z,9.74
2022-09-21T09:18:53.049Z,9.82
2022-09-21T09:19:53.022Z,9.85
2022-09-21T09:20:53.034Z,9.84
2022-09-21T09:21:53.029Z,9.87
2022-09-21T09:22:53.046Z,9.92
2022-09-21T09:23:53.034Z,9.92
2022-09-21T09:24:53.024Z,9.98
2022-09-21T09:25:53.024Z,10.03
2022-09-21T09:26:53.079Z,10.01
2022-09-21T09:27:53.023Z,10.02
2022-09-21T09:28:53.314Z,10.12
2022-09-21T09:29:53.050Z,10.21
2022-09-21T09:30:53.078Z,10.37
2022-09-21T09:31:53.139Z,10.45
2022-09-21T09:32:53.350Z,10.54
2022-09-21T09:33:53.088Z,10.57
2022-09-21T09:34:53.030Z,10.61
2022-09-21T09:35:53.062Z,10.65
2022-09-21T09:36:58.461Z,10.57
2022-09-21T09:37:53.071Z,10.58
2022-09-21T09:38:53.058Z,10.63
2022-09-21T09:39:53.048Z,10.68
2022-09-21T09:40:53.062Z,10.75
2022-09-21T09:41:53.054Z,10.90
2022-09-21T09:42:53.082Z,10.93
2022-09-21T09:43:53.069Z,11.08
2022-09-21T09:44:53.086Z,11.07
2022-09-21T09:45:53.097Z,11.07
2022-09-21T09:46:53.124Z,11.06
2022-09-21T09:47:53.061Z,11.04
2022-09-21T09:48:54.371Z,11.00
2022-09-21T09:49:53.084Z,11.00
2022-09-21T09:50:53.045Z,11.02
2022-09-21T09:51:53.099Z,11.04
2022-09-21T09:52:53.072Z,11.14
2022-09-21T09:53:53.059Z,11.16
2022-09-21T09:54:53.090Z,11.19
2022-09-21T09:55:53.044Z,11.20
2022-09-21T09:56:53.070Z,11.19
2022-09-21T09:57:53.086Z,11.12
2022-09-21T09:58:53.102Z,11.05
2022-09-21T09:59:54.638Z,11.00
2022-09-21T10:00:53.250Z,10.99
2022-09-21T10:01:53.105Z,10.99
2022-09-21T10:02:53.100Z,10.98
2022-09-21T10:03:53.173Z,10.98
2022-09-21T10:04:53.048Z,11.00
2022-09-21T10:05:53.097Z,11.06
2022-09-21T10:06:53.089Z,11.16
2022-09-21T10:07:53.099Z,11.27
2022-09-21T10:08:53.077Z,11.41
2022-09-21T10:09:53.131Z,11.41
2022-09-21T10:10:53.079Z,11.81
2022-09-21T10:11:53.131Z,12.04
2022-09-21T10:12:53.106Z,12.26
2022-09-21T10:13:53.122Z,12.26
2022-09-21T10:14:53.114Z,12.39
2022-09-21T10:15:53.141Z,12.45
2022-09-21T10:16:53.109Z,12.53
2022-09-21T10:17:53.107Z,12.58
2022-09-21T10:18:53.115Z,12.74
2022-09-21T10:19:53.106Z,12.89
2022-09-21T10:20:53.115Z,13.00
2022-09-21T10:21:53.117Z,13.07
2022-09-21T10:22:53.121Z,13.13
2022-09-21T10:23:53.088Z,13.18
2022-09-21T10:24:55.085Z,13.22
2022-09-21T10:25:53.088Z,13.22
2022-09-21T10:26:53.146Z,13.33
2022-09-21T10:27:53.145Z,13.53
2022-09-21T10:28:53.134Z,13.73
2022-09-21T10:29:53.156Z,14.03
2022-09-21T10:30:53.179Z,14.32
2022-09-21T10:31:53.129Z,14.62
2022-09-21T10:32:53.106Z,14.62
2022-09-21T10:33:53.094Z,15.12
2022-09-21T10:34:53.147Z,15.54
2022-09-21T10:35:53.125Z,15.98
2022-09-21T10:36:53.123Z,16.42
2022-09-21T10:37:53.120Z,16.82
2022-09-21T10:38:53.148Z,17.10
2022-09-21T10:39:53.144Z,17.28
2022-09-21T10:40:53.161Z,17.56
2022-09-21T10:41:53.118Z,17.69
2022-09-21T10:42:53.139Z,17.88
2022-09-21T10:43:53.148Z,18.07
2022-09-21T10:44:53.136Z,18.26
2022-09-21T10:45:53.231Z,18.61
2022-09-21T10:46:53.232Z,18.57
2022-09-21T10:47:53.162Z,18.44
2022-09-21T10:48:53.123Z,18.38
2022-09-21T10:49:53.146Z,18.62
2022-09-21T10:50:53.160Z,18.78
2022-09-21T10:51:53.176Z,18.96
2022-09-21T10:52:53.136Z,19.07
2022-09-21T10:53:54.430Z,19.09
2022-09-21T10:54:53.186Z,19.14
2022-09-21T10:56:14.236Z,19.27
2022-09-21T10:56:53.189Z,19.61
2022-09-21T10:57:53.160Z,19.98
2022-09-21T10:58:53.136Z,19.96
2022-09-21T10:59:53.150Z,20.11
2022-09-21T11:00:53.149Z,20.19
2022-09-21T11:01:53.357Z,20.58
2022-09-21T11:02:53.202Z,20.87
2022-09-21T11:03:53.159Z,21.08
2022-09-21T11:04:53.178Z,21.13
2022-09-21T11:05:53.274Z,21.29
2022-09-21T11:06:53.177Z,21.38
2022-09-21T11:07:53.178Z,21.25
2022-09-21T11:08:53.213Z,21.38
2022-09-21T11:09:53.200Z,21.58
2022-09-21T11:10:53.169Z,21.10
2022-09-21T11:11:53.181Z,21.13
2022-09-21T11:12:53.186Z,20.98
2022-09-21T11:13:53.191Z,21.02
2022-09-21T11:14:53.180Z,21.00
2022-09-21T11:15:53.239Z,21.20
2022-09-21T11:16:53.194Z,21.45
2022-09-21T11:17:53.183Z,21.77
2022-09-21T11:18:53.173Z,21.92
2022-09-21T11:19:53.209Z,22.13
2022-09-21T11:20:53.214Z,22.46
2022-09-21T11:21:53.202Z,22.97
2022-09-21T11:22:57.248Z,23.52
2022-09-21T11:23:53.204Z,23.86
2022-09-21T11:24:53.231Z,24.26
2022-09-21T11:25:53.205Z,24.68
2022-09-21T11:26:53.214Z,25.18
2022-09-21T11:27:53.183Z,25.52
2022-09-21T11:28:53.197Z,25.48
2022-09-21T11:29:53.217Z,25.38
2022-09-21T11:30:53.215Z,24.99
2022-09-21T11:31:53.217Z,24.62
2022-09-21T11:32:53.236Z,24.20
2022-09-21T11:33:53.218Z,23.88
2022-09-21T11:34:53.230Z,23.69
2022-09-21T11:35:53.229Z,23.59
2022-09-21T11:36:53.193Z,23.71
2022-09-21T11:37:53.235Z,23.99
2022-09-21T11:38:53.227Z,24.23
2022-09-21T11:39:53.236Z,24.37
2022-09-21T11:40:53.247Z,24.61
2022-09-21T11:41:53.223Z,25.06
2022-09-21T11:42:53.229Z,25.59
2022-09-21T11:43:53.228Z,25.92
2022-09-21T11:44:53.242Z,25.80
2022-09-21T11:45:53.299Z,25.41
2022-09-21T11:46:53.227Z,24.89
2022-09-21T11:47:53.223Z,24.00
2022-09-21T11:48:53.232Z,23.32
2022-09-21T11:50:03.057Z,22.58
2022-09-21T11:50:53.221Z,22.15
2022-09-21T11:51:56.030Z,22.08
2022-09-21T11:52:53.241Z,22.29
2022-09-21T11:53:53.231Z,22.78
2022-09-21T11:54:53.266Z,23.29
2022-09-21T11:55:53.244Z,23.75
2022-09-21T11:56:53.225Z,24.08
2022-09-21T11:57:55.005Z,24.15
2022-09-21T11:58:53.307Z,24.00
2022-09-21T11:59:53.260Z,23.69
2022-09-21T12:00:53.247Z,23.44
2022-09-21T12:01:53.265Z,23.25
2022-09-21T12:02:53.259Z,23.34
2022-09-21T12:03:53.268Z,23.58
2022-09-21T12:04:53.264Z,23.89
2022-09-21T12:05:53.269Z,24.29
2022-09-21T12:06:53.252Z,24.54
2022-09-21T12:07:53.278Z,24.70
2022-09-21T12:08:53.276Z,24.90
2022-09-21T12:09:53.270Z,24.96
2022-09-21T12:10:53.281Z,24.72
2022-09-21T12:11:53.243Z,24.76
2022-09-21T12:12:53.347Z,25.06
2022-09-21T12:13:53.286Z,25.49
2022-09-21T12:14:53.305Z,25.85
2022-09-21T12:15:53.347Z,26.47
2022-09-21T12:16:53.350Z,27.11
2022-09-21T12:17:53.301Z,27.20
2022-09-21T12:18:53.282Z,27.30
2022-09-21T12:19:53.260Z,27.61
2022-09-21T12:20:53.274Z,27.83
2022-09-21T12:21:53.286Z,27.96
2022-09-21T12:22:53.278Z,27.77
2022-09-21T12:23:53.285Z,27.26
2022-09-21T12:24:53.350Z,26.82
2022-09-21T12:25:53.233Z,26.76
2022-09-21T12:26:53.300Z,26.97
2022-09-21T12:27:53.286Z,27.02
2022-09-21T12:28:53.294Z,27.13
2022-09-21T12:29:53.301Z,27.33
2022-09-21T12:30:53.926Z,27.64
2022-09-21T12:31:53.244Z,27.75
2022-09-21T12:32:53.273Z,27.69
2022-09-21T12:33:53.293Z,27.67
2022-09-21T12:34:53.304Z,27.46
2022-09-21T12:35:53.299Z,27.14
2022-09-21T12:36:53.271Z,26.94
2022-09-21T12:37:53.302Z,26.77
2022-09-21T12:38:53.321Z,26.84
2022-09-21T12:39:53.329Z,26.93
2022-09-21T12:40:53.293Z,27.17
2022-09-21T12:41:53.331Z,27.47
2022-09-21T12:42:53.304Z,27.77
2022-09-21T12:43:53.308Z,28.02
2022-09-21T12:44:53.319Z,28.42
2022-09-21T12:45:53.356Z,28.79
2022-09-21T12:46:53.618Z,29.10
2022-09-21T12:47:53.333Z,29.11
2022-09-21T12:48:53.356Z,29.29
2022-09-21T12:49:53.368Z,29.60
2022-09-21T12:50:53.396Z,29.89
2022-09-21T12:51:53.415Z,30.19
2022-09-21T12:52:53.413Z,30.27
2022-09-21T12:53:53.416Z,30.11
2022-09-21T12:54:53.567Z,29.92
2022-09-21T12:55:53.447Z,29.71
2022-09-21T12:56:53.446Z,29.20
2022-09-21T12:58:14.006Z,28.39
2022-09-21T12:58:53.481Z,27.64
2022-09-21T12:59:53.465Z,26.80
2022-09-21T13:00:53.656Z,25.73
2022-09-21T13:01:56.885Z,24.75
2022-09-21T13:02:53.493Z,23.89
2022-09-21T13:03:53.501Z,23.13
2022-09-21T13:04:53.474Z,22.36
2022-09-21T13:05:53.496Z,21.77
2022-09-21T13:06:53.506Z,21.12
2022-09-21T13:07:53.484Z,20.70
2022-09-21T13:08:53.501Z,20.54
2022-09-21T13:09:53.489Z,20.85
2022-09-21T13:10:55.131Z,21.58
2022-09-21T13:11:53.482Z,22.47